createdAt,value
2022-12-06T00:03:15.608Z,5.97
2022-12-06T00:08:17.331Z,5.30
2022-12-06T00:13:18.932Z,5.63
2022-12-06T00:18:20.500Z,4.93
2022-12-06T00:23:22.076Z,5.10
2022-12-06T00:28:23.637Z,5.03
2022-12-06T00:33:25.698Z,5.00
2022-12-06T00:38:28.535Z,4.93
2022-12-06T00:43:30.884Z,5.20
2022-12-06T00:48:32.567Z,4.75
2022-12-06T00:53:34.152Z,5.07
2022-12-06T00:58:35.785Z,5.13
2022-12-06T01:03:37.842Z,4.72
2022-12-06T01:08:40.503Z,5.28
2022-12-06T01:13:43.348Z,5.45
2022-12-06T01:18:46.279Z,4.00
2022-12-06T01:23:48.467Z,4.53
2022-12-06T01:28:50.355Z,4.93
2022-12-06T01:33:52.276Z,4.70
2022-12-06T01:38:56.591Z,4.57
2022-12-06T01:43:58.198Z,4.68
2022-12-06T01:49:11.412Z,4.30
2022-12-06T01:54:16.047Z,4.60
2022-12-06T01:59:18.209Z,4.50
2022-12-06T02:04:20.594Z,4.57
2022-12-06T02:09:23.226Z,4.80
2022-12-06T02:14:32.552Z,4.95
2022-12-06T02:19:46.238Z,5.55
2022-12-06T02:24:53.787Z,5.55
2022-12-06T02:30:18.839Z,4.82
2022-12-06T02:35:35.072Z,4.75
2022-12-06T02:40:41.384Z,4.75
2022-12-06T02:45:52.637Z,5.43
2022-12-06T02:51:01.727Z,5.80
2022-12-06T02:56:03.485Z,5.50
2022-12-06T03:01:12.783Z,6.18
2022-12-06T03:06:23.467Z,6.18
2022-12-06T03:11:33.759Z,5.93
2022-12-06T03:16:45.941Z,6.30
2022-12-06T03:22:03.170Z,5.82
2022-12-06T03:27:09.653Z,5.28
2022-12-06T03:32:14.827Z,5.95
2022-12-06T03:37:21.595Z,6.03
2022-12-06T03:42:23.253Z,5.40
2022-12-06T03:47:38.084Z,5.90
2022-12-06T03:52:39.703Z,6.60
2022-12-06T03:57:41.326Z,6.00
2022-12-06T04:02:42.993Z,6.28
2022-12-06T04:07:44.591Z,6.18
2022-12-06T04:13:01.554Z,5.97
2022-12-06T04:18:13.529Z,6.88
2022-12-06T04:23:15.411Z,7.32
2022-12-06T04:28:35.530Z,7.35
2022-12-06T04:33:55.703Z,9.25
2022-12-06T04:38:57.577Z,12.48
2022-12-06T04:43:59.241Z,10.40
2022-12-06T04:49:00.875Z,9.23
2022-12-06T04:54:02.485Z,10.05
2022-12-06T04:59:04.079Z,11.40
2022-12-06T05:04:05.866Z,10.20
2022-12-06T05:09:07.670Z,9.98
2022-12-06T05:14:09.325Z,11.77
2022-12-06T05:19:13.172Z,10.23
2022-12-06T05:24:14.749Z,9.68
2022-12-06T05:29:16.482Z,10.52
2022-12-06T05:34:18.060Z,10.35
2022-12-06T05:39:19.615Z,9.70
2022-12-06T05:44:21.206Z,12.30
2022-12-06T05:49:22.808Z,9.60
2022-12-06T05:54:24.403Z,9.35
2022-12-06T05:59:25.993Z,11.75
2022-12-06T06:04:27.576Z,10.02
2022-12-06T06:09:29.150Z,9.70
2022-12-06T06:14:30.730Z,9.60
2022-12-06T06:19:32.297Z,9.73
2022-12-06T06:24:38.722Z,11.68
2022-12-06T06:29:45.135Z,10.50
2022-12-06T06:34:47.206Z,12.15
2022-12-06T06:39:48.912Z,10.65
2022-12-06T06:44:51.803Z,10.25
2022-12-06T06:49:53.415Z,10.40
2022-12-06T06:54:55.201Z,10.38
2022-12-06T06:59:56.783Z,11.18
2022-12-06T07:04:58.421Z,11.55
2022-12-06T07:10:00.368Z,12.57
2022-12-06T07:15:02.197Z,11.45
2022-12-06T07:20:04.914Z,16.63
2022-12-06T07:25:06.694Z,16.23
2022-12-06T07:30:08.774Z,18.13
2022-12-06T07:35:10.815Z,13.75
2022-12-06T07:40:14.603Z,9.52
2022-12-06T07:45:16.211Z,10.38
2022-12-06T07:50:20.574Z,8.20
2022-12-06T07:55:22.215Z,7.32
2022-12-06T08:00:23.966Z,8.52
2022-12-06T08:05:25.538Z,6.32
2022-12-06T08:10:27.676Z,5.70
2022-12-06T08:15:29.361Z,5.47
2022-12-06T08:20:31.029Z,5.13
2022-12-06T08:25:32.675Z,5.53
2022-12-06T08:30:34.351Z,5.28
2022-12-06T08:35:39.186Z,5.63
2022-12-06T08:40:41.015Z,6.95
2022-12-06T08:45:43.497Z,6.88
2022-12-06T08:50:45.063Z,7.28
2022-12-06T08:56:02.213Z,9.63
2022-12-06T09:01:16.543Z,7.40
2022-12-06T09:06:19.747Z,7.80
2022-12-06T09:11:21.380Z,8.23
2022-12-06T09:16:24.015Z,7.90
2022-12-06T09:21:30.402Z,9.82
2022-12-06T09:26:32.439Z,11.07
2022-12-06T09:31:35.557Z,9.38
2022-12-06T09:36:43.201Z,9.35
2022-12-06T09:42:00.074Z,8.80
2022-12-06T09:47:07.686Z,10.35
2022-12-06T09:52:15.601Z,13.45
2022-12-06T09:57:25.064Z,11.50
2022-12-06T10:02:47.807Z,10.68
2022-12-06T10:08:01.621Z,10.40
2022-12-06T10:13:07.056Z,11.88
2022-12-06T10:18:33.480Z,11.98
2022-12-06T10:23:47.441Z,15.27
2022-12-06T10:29:08.734Z,13.80
2022-12-06T10:34:41.999Z,14.75
2022-12-06T10:39:57.885Z,12.70
2022-12-06T10:45:37.139Z,13.65
2022-12-06T10:50:41.076Z,13.63
2022-12-06T10:55:49.843Z,15.05
2022-12-06T11:00:58.281Z,14.25
2022-12-06T11:06:02.498Z,14.20
2022-12-06T11:11:06.710Z,14.68
2022-12-06T11:16:34.409Z,13.40
2022-12-06T11:21:48.858Z,15.10
2022-12-06T11:27:04.619Z,15.77
2022-12-06T11:32:07.883Z,15.80
2022-12-06T11:37:18.082Z,17.80
2022-12-06T11:42:25.313Z,17.20
2022-12-06T11:47:27.083Z,16.55
2022-12-06T11:52:45.442Z,16.58
2022-12-06T11:58:13.122Z,16.25
2022-12-06T12:03:30.331Z,17.00
2022-12-06T12:08:32.905Z,18.77
2022-12-06T12:13:44.168Z,18.38
2022-12-06T12:18:54.062Z,16.80
2022-12-06T12:23:56.249Z,17.05
2022-12-06T12:29:06.154Z,17.80
2022-12-06T12:34:26.711Z,15.95
2022-12-06T12:39:50.333Z,17.95
2022-12-06T12:44:57.648Z,18.52
2022-12-06T12:50:14.657Z,14.93
2022-12-06T12:55:30.610Z,15.45
2022-12-06T13:00:37.437Z,15.20
2022-12-06T13:05:46.529Z,16.63
2022-12-06T13:10:58.494Z,14.13
2022-12-06T13:16:07.308Z,13.63
2022-12-06T13:21:22.351Z,15.05
2022-12-06T13:26:33.517Z,15.38
2022-12-06T13:31:39.799Z,15.18
2022-12-06T13:36:41.465Z,15.13
2022-12-06T13:42:01.558Z,14.63
2022-12-06T13:47:27.977Z,15.15
2022-12-06T13:52:41.858Z,15.90
2022-12-06T13:57:43.491Z,17.27
2022-12-06T14:02:46.465Z,16.33
2022-12-06T14:07:48.231Z,16.10
2022-12-06T14:12:59.285Z,16.58
2022-12-06T14:18:05.442Z,17.42
2022-12-06T14:23:45.423Z,13.75
2022-12-06T14:28:48.986Z,12.88
2022-12-06T14:33:52.070Z,14.73
2022-12-06T14:39:17.268Z,16.85
2022-12-06T14:44:20.648Z,14.18
2022-12-06T14:49:42.331Z,12.63
2022-12-06T14:54:45.535Z,14.23
2022-12-06T15:05:32.225Z,13.32
2022-12-06T15:10:34.697Z,14.45
2022-12-06T15:15:45.845Z,15.10
2022-12-06T15:20:48.891Z,14.27
2022-12-06T15:25:50.465Z,16.65
2022-12-06T15:30:52.624Z,15.15
2022-12-06T15:35:54.632Z,15.30
2022-12-06T15:40:56.981Z,15.40
2022-12-06T15:46:01.463Z,15.57
2022-12-06T15:51:09.257Z,17.42
2022-12-06T15:56:20.608Z,14.25
2022-12-06T16:01:26.464Z,16.25
2022-12-06T16:06:29.401Z,17.50
2022-12-06T16:11:31.026Z,12.90
2022-12-06T16:16:33.930Z,26.08
2022-12-06T16:21:51.076Z,65.10
2022-12-06T16:26:52.664Z,12.68
2022-12-06T16:31:54.476Z,13.98
2022-12-06T16:37:02.000Z,12.63
2022-12-06T16:42:04.471Z,9.20
2022-12-06T16:47:07.821Z,8.18
2022-12-06T16:52:09.540Z,8.87
2022-12-06T16:57:12.141Z,8.93
2022-12-06T17:02:26.426Z,9.00
2022-12-06T17:07:28.541Z,9.90
2022-12-06T17:12:30.104Z,15.63
2022-12-06T17:17:31.894Z,8.70
2022-12-06T17:22:34.806Z,9.00
2022-12-06T17:27:38.372Z,6.67
2022-12-06T17:32:40.142Z,6.33
2022-12-06T17:37:41.711Z,7.57
2022-12-06T17:43:01.403Z,7.30
2022-12-06T17:48:03.059Z,7.30
2022-12-06T17:53:04.845Z,8.20
2022-12-06T17:58:06.926Z,8.65
2022-12-06T18:03:08.545Z,7.78
2022-12-06T18:08:10.248Z,7.80
2022-12-06T18:13:11.862Z,7.72
2022-12-06T18:18:13.523Z,8.53
2022-12-06T18:23:15.101Z,11.07
2022-12-06T18:28:16.707Z,8.52
2022-12-06T18:33:21.032Z,8.88
2022-12-06T18:38:24.206Z,10.32
2022-12-06T18:43:25.779Z,12.75
2022-12-06T18:48:28.028Z,11.50
2022-12-06T18:53:30.010Z,20.05
2022-12-06T18:58:31.689Z,19.83
2022-12-06T19:03:33.255Z,9.97
2022-12-06T19:08:34.902Z,13.40
2022-12-06T19:13:36.468Z,11.50
2022-12-06T19:18:38.110Z,9.65
2022-12-06T19:23:39.810Z,8.53
2022-12-06T19:28:41.747Z,10.27
2022-12-06T19:33:46.264Z,9.43
2022-12-06T19:38:48.253Z,9.73
2022-12-06T19:44:08.435Z,11.75
2022-12-06T19:49:11.656Z,12.35
2022-12-06T19:54:30.934Z,10.88
2022-12-06T19:59:35.127Z,11.60
2022-12-06T20:04:39.425Z,11.82
2022-12-06T20:09:41.330Z,12.50
2022-12-06T20:14:45.827Z,9.77
2022-12-06T20:19:48.994Z,10.10
2022-12-06T20:24:50.606Z,9.60
2022-12-06T20:29:52.216Z,11.02
2022-12-06T20:34:53.789Z,8.32
2022-12-06T20:39:55.583Z,7.57
2022-12-06T20:44:57.159Z,8.20
2022-12-06T20:49:59.167Z,6.30
2022-12-06T20:55:00.936Z,7.47
2022-12-06T21:00:07.383Z,6.57
2022-12-06T21:05:09.517Z,8.23
2022-12-06T21:10:11.672Z,9.48
2022-12-06T21:15:13.261Z,7.30
2022-12-06T21:20:14.892Z,8.85
2022-12-06T21:25:16.614Z,9.15
2022-12-06T21:30:18.237Z,8.25
2022-12-06T21:35:19.894Z,6.80
2022-12-06T21:40:21.454Z,8.50
2022-12-06T21:45:23.032Z,9.07
2022-12-06T21:50:24.613Z,11.52
2022-12-06T21:55:26.610Z,11.85
2022-12-06T22:00:28.229Z,10.77
2022-12-06T22:05:29.804Z,11.30
2022-12-06T22:10:31.403Z,15.82
2022-12-06T22:15:32.980Z,16.00
2022-12-06T22:20:34.549Z,15.77
2022-12-06T22:25:39.571Z,20.52
2022-12-06T22:30:41.149Z,19.45
2022-12-06T22:35:43.364Z,20.80
2022-12-06T22:40:44.943Z,21.02
2022-12-06T22:45:46.526Z,22.77
2022-12-06T22:50:48.094Z,19.58
2022-12-06T22:55:49.679Z,22.20
2022-12-06T23:00:51.244Z,19.83
2022-12-06T23:05:58.207Z,25.38
2022-12-06T23:11:06.172Z,22.58
2022-12-06T23:16:11.898Z,19.92
2022-12-06T23:21:15.319Z,17.30
2022-12-06T23:26:28.888Z,14.00
2022-12-06T23:31:33.517Z,14.43
2022-12-06T23:36:36.057Z,13.80
2022-12-06T23:41:37.981Z,14.00
2022-12-06T23:46:41.078Z,20.90
2022-12-06T23:51:42.800Z,19.30
2022-12-06T23:56:45.132Z,27.00
